sensor_id;sensor_type;location;lat;lon;timestamp;pressure;altitude;pressure_sealevel;temperature;humidity
56456;BME280;42354;53.218;6.564;2022-07-06T00:00:52;102126.34;;;14.37;79.03
56456;BME280;42354;53.218;6.564;2022-07-06T00:03:17;102127.28;;;14.36;79.43
56456;BME280;42354;53.218;6.564;2022-07-06T00:05:42;102130.88;;;14.37;79.18
56456;BME280;42354;53.218;6.564;2022-07-06T00:08:07;102123.78;;;14.34;79.40
56456;BME280;42354;53.218;6.564;2022-07-06T00:10:32;102128.31;;;14.34;79.40
56456;BME280;42354;53.218;6.564;2022-07-06T00:12:58;102122.25;;;14.29;79.69
56456;BME280;42354;53.218;6.564;2022-07-06T00:15:23;102127.59;;;14.30;79.82
56456;BME280;42354;53.218;6.564;2022-07-06T00:17:48;102124.81;;;14.32;79.57
56456;BME280;42354;53.218;6.564;2022-07-06T00:20:13;102126.00;;;14.26;79.73
56456;BME280;42354;53.218;6.564;2022-07-06T00:22:38;102119.13;;;14.19;80.14
56456;BME280;42354;53.218;6.564;2022-07-06T00:25:04;102120.16;;;14.16;80.37
56456;BME280;42354;53.218;6.564;2022-07-06T00:27:29;102119.56;;;14.10;80.75
56456;BME280;42354;53.218;6.564;2022-07-06T00:29:54;102123.41;;;14.06;81.14
56456;BME280;42354;53.218;6.564;2022-07-06T00:32:19;102122.81;;;13.99;81.12
56456;BME280;42354;53.218;6.564;2022-07-06T00:34:45;102120.91;;;14.01;81.14
56456;BME280;42354;53.218;6.564;2022-07-06T00:37:10;102126.72;;;13.94;81.31
56456;BME280;42354;53.218;6.564;2022-07-06T00:39:35;102133.38;;;13.86;81.23
56456;BME280;42354;53.218;6.564;2022-07-06T00:42:00;102125.47;;;13.82;81.52
56456;BME280;42354;53.218;6.564;2022-07-06T00:44:26;102132.81;;;13.80;81.59
56456;BME280;42354;53.218;6.564;2022-07-06T00:46:51;102126.34;;;13.82;81.22
56456;BME280;42354;53.218;6.564;2022-07-06T00:49:16;102123.72;;;13.81;81.33
56456;BME280;42354;53.218;6.564;2022-07-06T00:52:00;102120.06;;;13.82;81.04
56456;BME280;42354;53.218;6.564;2022-07-06T00:54:26;102115.50;;;13.82;81.01
56456;BME280;42354;53.218;6.564;2022-07-06T00:56:54;102129.00;;;13.84;81.00
56456;BME280;42354;53.218;6.564;2022-07-06T00:59:20;102121.06;;;13.79;81.18
56456;BME280;42354;53.218;6.564;2022-07-06T01:01:45;102126.56;;;13.78;81.20
56456;BME280;42354;53.218;6.564;2022-07-06T01:04:10;102125.69;;;13.77;81.52
56456;BME280;42354;53.218;6.564;2022-07-06T01:06:35;102124.66;;;13.80;81.38
56456;BME280;42354;53.218;6.564;2022-07-06T01:09:01;102118.44;;;13.78;81.64
56456;BME280;42354;53.218;6.564;2022-07-06T01:11:27;102123.72;;;13.81;82.03
56456;BME280;42354;53.218;6.564;2022-07-06T01:13:52;102124.44;;;13.84;81.61
56456;BME280;42354;53.218;6.564;2022-07-06T01:16:17;102124.28;;;13.87;81.86
56456;BME280;42354;53.218;6.564;2022-07-06T01:18:43;102121.50;;;13.89;81.71
56456;BME280;42354;53.218;6.564;2022-07-06T01:21:09;102122.31;;;13.91;81.76
56456;BME280;42354;53.218;6.564;2022-07-06T01:23:38;102121.44;;;13.91;82.01
56456;BME280;42354;53.218;6.564;2022-07-06T01:26:03;102125.97;;;13.90;82.29
56456;BME280;42354;53.218;6.564;2022-07-06T01:28:29;102132.13;;;13.94;82.87
56456;BME280;42354;53.218;6.564;2022-07-06T01:30:54;102124.88;;;13.94;82.74
56456;BME280;42354;53.218;6.564;2022-07-06T01:33:19;102123.91;;;13.95;82.48
56456;BME280;42354;53.218;6.564;2022-07-06T01:35:44;102129.13;;;14.00;82.31
56456;BME280;42354;53.218;6.564;2022-07-06T01:38:10;102120.91;;;14.01;82.52
56456;BME280;42354;53.218;6.564;2022-07-06T01:40:35;102114.03;;;13.94;82.51
56456;BME280;42354;53.218;6.564;2022-07-06T01:43:00;102124.00;;;13.94;83.14
56456;BME280;42354;53.218;6.564;2022-07-06T01:45:26;102117.13;;;13.86;83.10
56456;BME280;42354;53.218;6.564;2022-07-06T01:47:51;102110.97;;;13.83;82.85
56456;BME280;42354;53.218;6.564;2022-07-06T01:50:16;102109.28;;;13.80;83.36
56456;BME280;42354;53.218;6.564;2022-07-06T01:52:41;102110.97;;;13.83;83.18
56456;BME280;42354;53.218;6.564;2022-07-06T01:55:07;102103.56;;;13.86;82.85
56456;BME280;42354;53.218;6.564;2022-07-06T01:57:32;102106.91;;;13.92;81.98
56456;BME280;42354;53.218;6.564;2022-07-06T01:59:57;102104.94;;;13.95;81.83
56456;BME280;42354;53.218;6.564;2022-07-06T02:02:22;102110.94;;;14.02;81.31
56456;BME280;42354;53.218;6.564;2022-07-06T02:04:48;102110.94;;;14.02;81.36
56456;BME280;42354;53.218;6.564;2022-07-06T02:07:13;102112.47;;;14.07;81.18
56456;BME280;42354;53.218;6.564;2022-07-06T02:09:38;102113.13;;;14.12;80.77
56456;BME280;42354;53.218;6.564;2022-07-06T02:12:03;102111.28;;;14.13;80.44
56456;BME280;42354;53.218;6.564;2022-07-06T02:14:29;102111.28;;;14.13;80.31
56456;BME280;42354;53.218;6.564;2022-07-06T02:16:54;102115.91;;;14.11;80.51
56456;BME280;42354;53.218;6.564;2022-07-06T02:19:19;102114.22;;;14.08;80.57
56456;BME280;42354;53.218;6.564;2022-07-06T02:21:44;102107.13;;;14.06;80.51
56456;BME280;42354;53.218;6.564;2022-07-06T02:24:09;102110.44;;;13.94;80.86
56456;BME280;42354;53.218;6.564;2022-07-06T02:26:35;102113.44;;;13.87;81.05
56456;BME280;42354;53.218;6.564;2022-07-06T02:29:00;102112.94;;;13.79;81.38
56456;BME280;42354;53.218;6.564;2022-07-06T02:31:25;102108.91;;;13.69;82.28
56456;BME280;42354;53.218;6.564;2022-07-06T02:33:50;102115.44;;;13.65;82.84
56456;BME280;42354;53.218;6.564;2022-07-06T02:36:16;102115.72;;;13.59;83.09
56456;BME280;42354;53.218;6.564;2022-07-06T02:38:41;102107.66;;;13.58;83.36
56456;BME280;42354;53.218;6.564;2022-07-06T02:41:06;102114.94;;;13.57;83.53
56456;BME280;42354;53.218;6.564;2022-07-06T02:43:31;102100.84;;;13.49;84.12
56456;BME280;42354;53.218;6.564;2022-07-06T02:45:57;102108.31;;;13.44;84.34
56456;BME280;42354;53.218;6.564;2022-07-06T02:48:22;102119.31;;;13.41;85.41
56456;BME280;42354;53.218;6.564;2022-07-06T02:50:47;102108.75;;;13.35;85.91
56456;BME280;42354;53.218;6.564;2022-07-06T02:53:12;102111.81;;;13.27;86.01
56456;BME280;42354;53.218;6.564;2022-07-06T02:55:38;102112.09;;;13.21;86.80
56456;BME280;42354;53.218;6.564;2022-07-06T02:58:03;102111.38;;;13.17;86.99
56456;BME280;42354;53.218;6.564;2022-07-06T03:00:29;102106.19;;;13.11;86.84
56456;BME280;42354;53.218;6.564;2022-07-06T03:02:54;102109.31;;;13.02;87.29
56456;BME280;42354;53.218;6.564;2022-07-06T03:05:19;102099.72;;;12.95;87.72
56456;BME280;42354;53.218;6.564;2022-07-06T03:07:45;102109.81;;;12.91;87.90
56456;BME280;42354;53.218;6.564;2022-07-06T03:10:10;102117.84;;;12.93;87.88
56456;BME280;42354;53.218;6.564;2022-07-06T03:12:35;102110.81;;;12.89;88.33
56456;BME280;42354;53.218;6.564;2022-07-06T03:15:00;102115.28;;;12.90;88.19
56456;BME280;42354;53.218;6.564;2022-07-06T03:17:26;102108.94;;;12.91;88.94
56456;BME280;42354;53.218;6.564;2022-07-06T03:19:52;102110.81;;;12.89;88.59
56456;BME280;42354;53.218;6.564;2022-07-06T03:22:17;102106.16;;;12.93;88.77
56456;BME280;42354;53.218;6.564;2022-07-06T03:24:45;102109.13;;;12.86;89.17
56456;BME280;42354;53.218;6.564;2022-07-06T03:27:10;102105.47;;;12.87;89.23
56456;BME280;42354;53.218;6.564;2022-07-06T03:29:35;102116.09;;;12.92;89.04
56456;BME280;42354;53.218;6.564;2022-07-06T03:32:01;102112.59;;;12.90;89.32
56456;BME280;42354;53.218;6.564;2022-07-06T03:34:26;102106.34;;;12.88;89.45
56456;BME280;42354;53.218;6.564;2022-07-06T03:36:51;102114.53;;;12.86;89.17
56456;BME280;42354;53.218;6.564;2022-07-06T03:39:16;102112.84;;;12.84;88.82
56456;BME280;42354;53.218;6.564;2022-07-06T03:41:42;102108.44;;;12.81;88.80
56456;BME280;42354;53.218;6.564;2022-07-06T03:44:07;102110.41;;;12.78;88.48
56456;BME280;42354;53.218;6.564;2022-07-06T03:46:33;102112.31;;;12.76;88.42
56456;BME280;42354;53.218;6.564;2022-07-06T03:48:58;102109.59;;;12.76;88.12
56456;BME280;42354;53.218;6.564;2022-07-06T03:51:24;102111.38;;;12.77;87.76
56456;BME280;42354;53.218;6.564;2022-07-06T03:53:49;102112.25;;;12.77;87.55
56456;BME280;42354;53.218;6.564;2022-07-06T03:56:14;102109.53;;;12.77;87.49
56456;BME280;42354;53.218;6.564;2022-07-06T03:58:59;102104.13;;;12.77;87.18
56456;BME280;42354;53.218;6.564;2022-07-06T04:01:24;102107.66;;;12.79;87.10
56456;BME280;42354;53.218;6.564;2022-07-06T04:03:49;102112.03;;;12.82;87.17
56456;BME280;42354;53.218;6.564;2022-07-06T04:06:15;102110.81;;;12.89;86.64
56456;BME280;42354;53.218;6.564;2022-07-06T04:08:44;102115.16;;;12.93;86.71
56456;BME280;42354;53.218;6.564;2022-07-06T04:11:10;102123.81;;;13.01;86.41
56456;BME280;42354;53.218;6.564;2022-07-06T04:13:35;102120.00;;;13.05;86.34
56456;BME280;42354;53.218;6.564;2022-07-06T04:16:00;102125.22;;;13.10;85.79
56456;BME280;42354;53.218;6.564;2022-07-06T04:18:25;102117.03;;;13.11;85.63
56456;BME280;42354;53.218;6.564;2022-07-06T04:20:51;102123.16;;;13.16;85.20
56456;BME280;42354;53.218;6.564;2022-07-06T04:23:16;102124.91;;;13.17;85.25
56456;BME280;42354;53.218;6.564;2022-07-06T04:25:41;102120.97;;;13.25;84.69
56456;BME280;42354;53.218;6.564;2022-07-06T04:28:06;102123.53;;;13.28;83.50
56456;BME280;42354;53.218;6.564;2022-07-06T04:30:32;102132.47;;;13.30;83.27
56456;BME280;42354;53.218;6.564;2022-07-06T04:32:57;102137.63;;;13.36;82.72
56456;BME280;42354;53.218;6.564;2022-07-06T04:35:22;102138.84;;;13.29;83.48
56456;BME280;42354;53.218;6.564;2022-07-06T04:37:47;102138.56;;;13.35;83.64
56456;BME280;42354;53.218;6.564;2022-07-06T04:40:13;102141.84;;;13.22;85.26
56456;BME280;42354;53.218;6.564;2022-07-06T04:42:39;102139.59;;;13.12;86.14
56456;BME280;42354;53.218;6.564;2022-07-06T04:45:04;102153.34;;;13.07;87.32
56456;BME280;42354;53.218;6.564;2022-07-06T04:47:30;102155.03;;;13.10;87.36
56456;BME280;42354;53.218;6.564;2022-07-06T04:49:55;102133.56;;;13.05;87.86
56456;BME280;42354;53.218;6.564;2022-07-06T04:52:20;102153.47;;;13.04;86.88
56456;BME280;42354;53.218;6.564;2022-07-06T04:54:45;102141.63;;;13.07;85.76
56456;BME280;42354;53.218;6.564;2022-07-06T04:57:11;102137.91;;;13.09;84.40
56456;BME280;42354;53.218;6.564;2022-07-06T04:59:37;102130.34;;;13.17;82.74
56456;BME280;42354;53.218;6.564;2022-07-06T05:02:02;102130.72;;;13.29;82.76
56456;BME280;42354;53.218;6.564;2022-07-06T05:04:27;102132.84;;;13.41;81.80
56456;BME280;42354;53.218;6.564;2022-07-06T05:06:53;102124.22;;;13.51;80.95
56456;BME280;42354;53.218;6.564;2022-07-06T05:09:18;102124.66;;;13.61;79.67
56456;BME280;42354;53.218;6.564;2022-07-06T05:11:43;102133.97;;;13.74;79.55
56456;BME280;42354;53.218;6.564;2022-07-06T05:14:09;102133.38;;;13.86;78.39
56456;BME280;42354;53.218;6.564;2022-07-06T05:16:35;102140.84;;;14.00;77.97
56456;BME280;42354;53.218;6.564;2022-07-06T05:19:00;102131.16;;;14.13;76.80
56456;BME280;42354;53.218;6.564;2022-07-06T05:21:25;102135.09;;;14.25;75.13
56456;BME280;42354;53.218;6.564;2022-07-06T05:23:51;102129.13;;;14.36;74.39
56456;BME280;42354;53.218;6.564;2022-07-06T05:26:16;102126.78;;;14.47;73.38
56456;BME280;42354;53.218;6.564;2022-07-06T05:28:42;102125.50;;;14.54;73.26
56456;BME280;42354;53.218;6.564;2022-07-06T05:31:07;102135.31;;;14.57;73.51
56456;BME280;42354;53.218;6.564;2022-07-06T05:33:32;102141.31;;;14.63;74.61
56456;BME280;42354;53.218;6.564;2022-07-06T05:35:58;102144.59;;;14.70;76.55
56456;BME280;42354;53.218;6.564;2022-07-06T05:38:23;102130.16;;;14.69;77.54
56456;BME280;42354;53.218;6.564;2022-07-06T05:40:48;102136.94;;;14.61;80.08
56456;BME280;42354;53.218;6.564;2022-07-06T05:43:14;102131.25;;;14.48;81.01
56456;BME280;42354;53.218;6.564;2022-07-06T05:45:39;102141.31;;;14.27;82.87
56456;BME280;42354;53.218;6.564;2022-07-06T05:48:04;102136.47;;;14.34;82.69
56456;BME280;42354;53.218;6.564;2022-07-06T05:50:48;102136.69;;;14.48;82.84
56456;BME280;42354;53.218;6.564;2022-07-06T05:53:13;102133.09;;;14.65;81.83
56456;BME280;42354;53.218;6.564;2022-07-06T05:55:40;102142.84;;;14.69;82.27
56456;BME280;42354;53.218;6.564;2022-07-06T05:58:05;102132.13;;;14.83;81.74
56456;BME280;42354;53.218;6.564;2022-07-06T06:00:32;102133.25;;;14.96;81.17
56456;BME280;42354;53.218;6.564;2022-07-06T06:02:58;102133.31;;;15.12;80.64
56456;BME280;42354;53.218;6.564;2022-07-06T06:05:23;102130.59;;;15.45;79.66
56456;BME280;42354;53.218;6.564;2022-07-06T06:07:49;102132.63;;;15.74;78.08
56456;BME280;42354;53.218;6.564;2022-07-06T06:10:16;102143.97;;;15.83;77.24
56456;BME280;42354;53.218;6.564;2022-07-06T06:12:43;102141.25;;;15.98;75.83
56456;BME280;42354;53.218;6.564;2022-07-06T06:15:09;102149.06;;;15.89;75.39
56456;BME280;42354;53.218;6.564;2022-07-06T06:17:35;102145.63;;;15.69;77.79
56456;BME280;42354;53.218;6.564;2022-07-06T06:20:00;102141.00;;;15.37;78.71
56456;BME280;42354;53.218;6.564;2022-07-06T06:22:25;102149.06;;;15.05;80.66
56456;BME280;42354;53.218;6.564;2022-07-06T06:24:51;102148.91;;;14.91;81.47
56456;BME280;42354;53.218;6.564;2022-07-06T06:27:16;102167.78;;;14.77;81.72
56456;BME280;42354;53.218;6.564;2022-07-06T06:29:41;102154.09;;;14.61;84.53
56456;BME280;42354;53.218;6.564;2022-07-06T06:32:09;102158.50;;;14.64;84.14
56456;BME280;42354;53.218;6.564;2022-07-06T06:34:34;102159.22;;;14.67;83.58
56456;BME280;42354;53.218;6.564;2022-07-06T06:37:01;102175.50;;;14.67;84.33
56456;BME280;42354;53.218;6.564;2022-07-06T06:39:27;102166.97;;;14.75;85.03
56456;BME280;42354;53.218;6.564;2022-07-06T06:41:52;102172.81;;;14.84;85.11
56456;BME280;42354;53.218;6.564;2022-07-06T06:44:17;102169.03;;;15.04;84.23
56456;BME280;42354;53.218;6.564;2022-07-06T06:46:43;102166.31;;;15.22;83.54
56456;BME280;42354;53.218;6.564;2022-07-06T06:49:08;102180.38;;;15.30;83.37
56456;BME280;42354;53.218;6.564;2022-07-06T06:51:34;102181.47;;;15.43;81.86
56456;BME280;42354;53.218;6.564;2022-07-06T06:53:59;102170.78;;;15.56;81.98
56456;BME280;42354;53.218;6.564;2022-07-06T06:56:25;102179.25;;;15.84;81.73
56456;BME280;42354;53.218;6.564;2022-07-06T06:58:50;102186.63;;;16.29;79.80
56456;BME280;42354;53.218;6.564;2022-07-06T07:01:15;102185.81;;;16.59;77.41
56456;BME280;42354;53.218;6.564;2022-07-06T07:03:41;102183.63;;;16.65;76.68
56456;BME280;42354;53.218;6.564;2022-07-06T07:06:06;102189.00;;;16.67;75.92
56456;BME280;42354;53.218;6.564;2022-07-06T07:08:32;102193.53;;;16.82;75.51
56456;BME280;42354;53.218;6.564;2022-07-06T07:10:57;102188.41;;;16.92;74.40
56456;BME280;42354;53.218;6.564;2022-07-06T07:13:22;102180.19;;;16.62;74.65
56456;BME280;42354;53.218;6.564;2022-07-06T07:15:47;102176.50;;;16.47;75.89
56456;BME280;42354;53.218;6.564;2022-07-06T07:18:13;102177.22;;;16.51;75.76
56456;BME280;42354;53.218;6.564;2022-07-06T07:20:38;102176.97;;;16.39;74.79
56456;BME280;42354;53.218;6.564;2022-07-06T07:23:03;102164.25;;;16.24;75.00
56456;BME280;42354;53.218;6.564;2022-07-06T07:25:28;102174.34;;;16.22;73.92
56456;BME280;42354;53.218;6.564;2022-07-06T07:27:53;102178.28;;;16.01;75.22
56456;BME280;42354;53.218;6.564;2022-07-06T07:30:19;102174.44;;;15.89;75.20
56456;BME280;42354;53.218;6.564;2022-07-06T07:32:44;102171.69;;;15.89;75.02
56456;BME280;42354;53.218;6.564;2022-07-06T07:35:10;102166.44;;;15.86;73.93
56456;BME280;42354;53.218;6.564;2022-07-06T07:37:36;102162.75;;;16.03;74.04
56456;BME280;42354;53.218;6.564;2022-07-06T07:40:02;102173.44;;;16.53;72.89
56456;BME280;42354;53.218;6.564;2022-07-06T07:42:27;102171.34;;;16.88;70.27
56456;BME280;42354;53.218;6.564;2022-07-06T07:44:52;102159.66;;;17.30;64.88
56456;BME280;42354;53.218;6.564;2022-07-06T07:47:18;102169.78;;;17.57;64.12
56456;BME280;42354;53.218;6.564;2022-07-06T07:49:43;102180.03;;;17.82;63.24
56456;BME280;42354;53.218;6.564;2022-07-06T07:52:09;102171.66;;;17.85;60.03
56456;BME280;42354;53.218;6.564;2022-07-06T07:54:34;102171.97;;;17.66;58.37
56456;BME280;42354;53.218;6.564;2022-07-06T07:56:59;102181.81;;;17.83;58.48
56456;BME280;42354;53.218;6.564;2022-07-06T07:59:25;102181.81;;;17.83;56.90
56456;BME280;42354;53.218;6.564;2022-07-06T08:01:50;102181.09;;;17.93;57.41
56456;BME280;42354;53.218;6.564;2022-07-06T08:04:15;102184.69;;;18.08;56.54
56456;BME280;42354;53.218;6.564;2022-07-06T08:06:41;102177.38;;;18.09;55.75
56456;BME280;42354;53.218;6.564;2022-07-06T08:09:07;102186.84;;;18.03;56.20
56456;BME280;42354;53.218;6.564;2022-07-06T08:11:33;102185.31;;;17.85;55.58
56456;BME280;42354;53.218;6.564;2022-07-06T08:13:58;102187.25;;;17.83;54.97
56456;BME280;42354;53.218;6.564;2022-07-06T08:16:23;102185.31;;;17.70;54.45
56456;BME280;42354;53.218;6.564;2022-07-06T08:18:49;102191.66;;;17.85;54.59
56456;BME280;42354;53.218;6.564;2022-07-06T08:21:14;102191.81;;;17.96;53.76
56456;BME280;42354;53.218;6.564;2022-07-06T08:23:39;102193.88;;;17.93;53.99
56456;BME280;42354;53.218;6.564;2022-07-06T08:26:06;102200.28;;;18.06;54.26
56456;BME280;42354;53.218;6.564;2022-07-06T08:28:31;102192.06;;;18.20;53.96
56456;BME280;42354;53.218;6.564;2022-07-06T08:30:56;102196.94;;;18.29;54.21
56456;BME280;42354;53.218;6.564;2022-07-06T08:33:22;102194.38;;;18.41;53.49
56456;BME280;42354;53.218;6.564;2022-07-06T08:35:47;102186.78;;;18.31;52.14
56456;BME280;42354;53.218;6.564;2022-07-06T08:38:13;102195.59;;;18.22;52.12
56456;BME280;42354;53.218;6.564;2022-07-06T08:40:38;102179.19;;;18.22;51.88
56456;BME280;42354;53.218;6.564;2022-07-06T08:43:05;102184.69;;;18.08;51.96
56456;BME280;42354;53.218;6.564;2022-07-06T08:45:30;102191.94;;;17.95;52.96
56456;BME280;42354;53.218;6.564;2022-07-06T08:47:56;102179.63;;;18.02;53.84
56456;BME280;42354;53.218;6.564;2022-07-06T08:50:23;102188.00;;;18.13;54.21
56456;BME280;42354;53.218;6.564;2022-07-06T08:52:49;102189.66;;;18.16;54.18
56456;BME280;42354;53.218;6.564;2022-07-06T08:55:16;102190.81;;;18.12;53.90
56456;BME280;42354;53.218;6.564;2022-07-06T08:57:41;102189.91;;;18.25;53.57
56456;BME280;42354;53.218;6.564;2022-07-06T09:00:08;102186.88;;;18.30;53.63
56456;BME280;42354;53.218;6.564;2022-07-06T09:02:33;102181.53;;;18.28;54.31
56456;BME280;42354;53.218;6.564;2022-07-06T09:04:59;102183.63;;;18.38;54.91
56456;BME280;42354;53.218;6.564;2022-07-06T09:07:27;102181.91;;;18.63;54.77
56456;BME280;42354;53.218;6.564;2022-07-06T09:09:53;102188.34;;;18.62;55.19
56456;BME280;42354;53.218;6.564;2022-07-06T09:12:19;102191.03;;;18.09;58.55
56456;BME280;42354;53.218;6.564;2022-07-06T09:14:50;102183.38;;;17.73;59.78
56456;BME280;42354;53.218;6.564;2022-07-06T09:17:15;102201.16;;;17.50;61.36
56456;BME280;42354;53.218;6.564;2022-07-06T09:19:41;102197.91;;;17.29;62.80
56456;BME280;42354;53.218;6.564;2022-07-06T09:22:06;102189.06;;;17.25;62.89
56456;BME280;42354;53.218;6.564;2022-07-06T09:24:31;102197.75;;;17.46;62.53
56456;BME280;42354;53.218;6.564;2022-07-06T09:26:57;102192.63;;;17.70;60.66
56456;BME280;42354;53.218;6.564;2022-07-06T09:29:32;102192.78;;;18.10;59.22
56456;BME280;42354;53.218;6.564;2022-07-06T09:32:02;102196.84;;;18.58;57.53
56456;BME280;42354;53.218;6.564;2022-07-06T09:34:41;102194.19;;;18.71;57.14
56456;BME280;42354;53.218;6.564;2022-07-06T09:37:07;102184.50;;;18.92;57.33
56456;BME280;42354;53.218;6.564;2022-07-06T09:39:32;102189.47;;;19.25;56.11
56456;BME280;42354;53.218;6.564;2022-07-06T09:41:58;102188.91;;;19.07;55.76
56456;BME280;42354;53.218;6.564;2022-07-06T09:44:25;102184.41;;;18.93;54.93
56456;BME280;42354;53.218;6.564;2022-07-06T09:46:51;102184.28;;;18.95;54.47
56456;BME280;42354;53.218;6.564;2022-07-06T09:49:17;102185.75;;;19.13;54.63
56456;BME280;42354;53.218;6.564;2022-07-06T09:51:44;102178.97;;;19.19;54.55
56456;BME280;42354;53.218;6.564;2022-07-06T09:54:09;102179.75;;;19.33;54.44
56456;BME280;42354;53.218;6.564;2022-07-06T09:56:35;102190.34;;;19.13;54.50
56456;BME280;42354;53.218;6.564;2022-07-06T09:59:04;102181.22;;;18.87;55.17
56456;BME280;42354;53.218;6.564;2022-07-06T10:01:30;102178.19;;;19.04;54.32
56456;BME280;42354;53.218;6.564;2022-07-06T10:03:56;102188.81;;;19.09;54.32
56456;BME280;42354;53.218;6.564;2022-07-06T10:06:22;102186.41;;;19.17;54.17
56456;BME280;42354;53.218;6.564;2022-07-06T10:08:48;102186.84;;;19.11;53.83
56456;BME280;42354;53.218;6.564;2022-07-06T10:11:14;102191.09;;;19.02;51.89
56456;BME280;42354;53.218;6.564;2022-07-06T10:13:39;102197.97;;;18.95;52.15
56456;BME280;42354;53.218;6.564;2022-07-06T10:16:06;102195.31;;;18.81;52.62
56456;BME280;42354;53.218;6.564;2022-07-06T10:18:32;102192.19;;;18.99;52.86
56456;BME280;42354;53.218;6.564;2022-07-06T10:20:57;102183.13;;;19.24;53.18
56456;BME280;42354;53.218;6.564;2022-07-06T10:23:23;102192.88;;;19.41;53.50
56456;BME280;42354;53.218;6.564;2022-07-06T10:25:49;102188.19;;;19.43;53.52
56456;BME280;42354;53.218;6.564;2022-07-06T10:28:15;102183.03;;;19.51;53.70
56456;BME280;42354;53.218;6.564;2022-07-06T10:30:41;102157.66;;;19.75;51.68
56456;BME280;42354;53.218;6.564;2022-07-06T10:33:07;102169.69;;;19.85;50.17
56456;BME280;42354;53.218;6.564;2022-07-06T10:35:33;102165.88;;;20.11;50.30
56456;BME280;42354;53.218;6.564;2022-07-06T10:38:05;102165.88;;;20.48;49.20
56456;BME280;42354;53.218;6.564;2022-07-06T10:40:40;102162.53;;;20.32;49.60
56456;BME280;42354;53.218;6.564;2022-07-06T10:43:34;102161.28;;;20.48;48.83
56456;BME280;42354;53.218;6.564;2022-07-06T10:46:04;102150.53;;;20.93;47.97
56456;BME280;42354;53.218;6.564;2022-07-06T10:48:39;102158.28;;;21.45;45.67
56456;BME280;42354;53.218;6.564;2022-07-06T10:51:05;102158.03;;;21.60;45.86
56456;BME280;42354;53.218;6.564;2022-07-06T10:53:32;102157.28;;;21.58;45.27
56456;BME280;42354;53.218;6.564;2022-07-06T10:56:01;102157.28;;;20.76;47.55
56456;BME280;42354;53.218;6.564;2022-07-06T11:01:10;102156.06;;;20.33;47.66
56456;BME280;42354;53.218;6.564;2022-07-06T11:03:43;102164.19;;;20.21;47.22
56456;BME280;42354;53.218;6.564;2022-07-06T11:06:13;102143.94;;;20.72;45.70
56456;BME280;42354;53.218;6.564;2022-07-06T11:11:55;102148.06;;;20.77;45.11
56456;BME280;42354;53.218;6.564;2022-07-06T11:14:14;102153.41;;;20.44;45.93
56456;BME280;42354;53.218;6.564;2022-07-06T11:19:13;102137.25;;;20.52;46.19
56456;BME280;42354;53.218;6.564;2022-07-06T11:21:49;102128.03;;;20.53;46.92
56456;BME280;42354;53.218;6.564;2022-07-06T11:24:17;102138.66;;;19.97;48.60
56456;BME280;42354;53.218;6.564;2022-07-06T11:26:43;102132.84;;;19.89;49.32
56456;BME280;42354;53.218;6.564;2022-07-06T11:29:10;102126.25;;;20.04;48.54
56456;BME280;42354;53.218;6.564;2022-07-06T11:31:40;102128.50;;;20.47;47.28
56456;BME280;42354;53.218;6.564;2022-07-06T11:34:06;102126.19;;;20.88;45.51
56456;BME280;42354;53.218;6.564;2022-07-06T11:36:31;102121.91;;;21.19;45.34
56456;BME280;42354;53.218;6.564;2022-07-06T11:38:57;102118.06;;;21.22;44.76
56456;BME280;42354;53.218;6.564;2022-07-06T11:41:22;102107.75;;;21.48;43.57
56456;BME280;42354;53.218;6.564;2022-07-06T11:43:48;102100.06;;;21.96;43.12
56456;BME280;42354;53.218;6.564;2022-07-06T11:46:32;102096.84;;;22.66;42.90
56456;BME280;42354;53.218;6.564;2022-07-06T11:49:02;102096.31;;;23.35;40.80
56456;BME280;42354;53.218;6.564;2022-07-06T11:51:29;102110.00;;;23.46;38.64
56456;BME280;42354;53.218;6.564;2022-07-06T11:53:58;102115.09;;;22.99;39.05
56456;BME280;42354;53.218;6.564;2022-07-06T11:56:25;102110.94;;;22.52;40.06
56456;BME280;42354;53.218;6.564;2022-07-06T11:59:01;102116.88;;;22.36;41.00
56456;BME280;42354;53.218;6.564;2022-07-06T12:01:27;102112.28;;;22.26;41.67
56456;BME280;42354;53.218;6.564;2022-07-06T12:03:52;102106.06;;;22.12;41.25
56456;BME280;42354;53.218;6.564;2022-07-06T12:06:19;102125.97;;;21.71;42.59
56456;BME280;42354;53.218;6.564;2022-07-06T12:08:46;102122.84;;;21.76;42.71
56456;BME280;42354;53.218;6.564;2022-07-06T12:11:19;102115.69;;;21.84;42.39
56456;BME280;42354;53.218;6.564;2022-07-06T12:13:45;102112.34;;;21.70;42.49
56456;BME280;42354;53.218;6.564;2022-07-06T12:16:11;102105.38;;;21.32;43.50
56456;BME280;42354;53.218;6.564;2022-07-06T12:18:37;102102.06;;;21.05;44.05
56456;BME280;42354;53.218;6.564;2022-07-06T12:21:02;102095.66;;;20.93;44.87
56456;BME280;42354;53.218;6.564;2022-07-06T12:23:37;102094.91;;;20.91;44.63
56456;BME280;42354;53.218;6.564;2022-07-06T12:26:02;102093.72;;;20.71;44.65
56456;BME280;42354;53.218;6.564;2022-07-06T12:28:28;102087.63;;;20.79;45.01
56456;BME280;42354;53.218;6.564;2022-07-06T12:30:53;102087.53;;;20.80;45.28
56456;BME280;42354;53.218;6.564;2022-07-06T12:33:18;102082.97;;;20.68;45.59
56456;BME280;42354;53.218;6.564;2022-07-06T12:35:43;102090.56;;;20.65;46.00
56456;BME280;42354;53.218;6.564;2022-07-06T12:38:09;102072.00;;;21.14;44.68
56456;BME280;42354;53.218;6.564;2022-07-06T12:40:35;102075.66;;;21.48;44.10
56456;BME280;42354;53.218;6.564;2022-07-06T12:43:01;102069.41;;;21.69;42.83
56456;BME280;42354;53.218;6.564;2022-07-06T12:45:29;102067.03;;;21.64;42.41
56456;BME280;42354;53.218;6.564;2022-07-06T12:48:02;102072.78;;;21.72;42.93
56456;BME280;42354;53.218;6.564;2022-07-06T12:50:32;102074.28;;;21.65;43.12
56456;BME280;42354;53.218;6.564;2022-07-06T12:52:58;102053.56;;;21.16;44.50